Terminal Aerodrome Forecast
Issued by NWS

Home | Current Version | Previous Version | Graphics & Text | Print | Product List | Glossary On
Versions: 1 2 3 4 5 6 7 8 9 10 11 12 13 14 15 16 17 18 19 20 21
000
FTUS43 KMPX 151439 AAA
TAFRNH
TAF AMD
KRNH 151439Z 1515/1612 30011G20KT P6SM OVC009
     FM151530 30015G23KT P6SM SCT009 OVC010
     FM152000 30017G25KT P6SM OVC020
     FM160600 33006KT P6SM OVC020=

USA.gov is the U.S. government's official web portal to all federal, state and local government web resources and services.